createdAt,value
2018-12-11T00:00:10.087Z,5.50
2018-12-11T00:02:38.380Z,7.40
2018-12-11T00:05:06.839Z,6.57
2018-12-11T00:07:35.191Z,5.37
2018-12-11T00:10:04.320Z,5.07
2018-12-11T00:12:32.618Z,5.23
2018-12-11T00:15:01.061Z,5.60
2018-12-11T00:17:29.331Z,6.10
2018-12-11T00:19:57.581Z,5.40
2018-12-11T00:22:25.821Z,6.40
2018-12-11T00:24:54.159Z,6.33
2018-12-11T00:27:22.395Z,6.40
2018-12-11T00:29:50.688Z,5.40
2018-12-11T00:32:18.966Z,6.07
2018-12-11T00:34:47.242Z,5.73
2018-12-11T00:37:15.480Z,7.07
2018-12-11T00:39:43.728Z,6.67
2018-12-11T00:42:11.998Z,8.40
2018-12-11T00:44:40.218Z,6.13
2018-12-11T00:47:08.479Z,6.80
2018-12-11T00:49:36.751Z,5.67
2018-12-11T00:52:05.035Z,5.10
2018-12-11T00:54:33.281Z,4.80
2018-12-11T00:57:01.967Z,6.97
2018-12-11T00:59:30.272Z,5.80
2018-12-11T01:01:58.487Z,5.10
2018-12-11T01:04:26.762Z,5.20
2018-12-11T01:06:54.997Z,5.90
2018-12-11T01:09:23.296Z,5.40
2018-12-11T01:11:51.552Z,6.40
2018-12-11T01:14:19.791Z,6.43
2018-12-11T01:16:48.026Z,5.43
2018-12-11T01:19:16.296Z,5.33
2018-12-11T01:21:44.596Z,6.07
2018-12-11T01:24:12.810Z,6.17
2018-12-11T01:26:41.098Z,6.07
2018-12-11T01:29:09.384Z,5.60
2018-12-11T01:31:37.618Z,5.83
2018-12-11T01:34:05.897Z,6.33
2018-12-11T01:36:34.115Z,5.97
2018-12-11T01:39:02.534Z,6.47
2018-12-11T01:41:30.876Z,6.67
2018-12-11T01:43:59.139Z,6.93
2018-12-11T01:46:27.407Z,6.63
2018-12-11T01:48:55.635Z,6.10
2018-12-11T01:51:23.969Z,4.90
2018-12-11T01:53:52.205Z,6.30
2018-12-11T01:56:20.484Z,6.43
2018-12-11T01:58:48.735Z,6.50
2018-12-11T02:01:16.979Z,6.63
2018-12-11T02:03:45.273Z,7.00
2018-12-11T02:06:13.544Z,7.80
2018-12-11T02:08:41.805Z,7.50
2018-12-11T02:11:10.158Z,7.27
2018-12-11T02:13:38.427Z,7.20
2018-12-11T02:16:06.695Z,8.13
2018-12-11T02:18:35.050Z,6.13
2018-12-11T02:21:03.301Z,6.10
2018-12-11T02:23:31.560Z,7.40
2018-12-11T02:26:00.057Z,6.73
2018-12-11T02:28:28.328Z,8.17
2018-12-11T02:30:56.598Z,6.60
2018-12-11T02:33:24.882Z,6.30
2018-12-11T02:35:53.176Z,6.17
2018-12-11T02:38:21.417Z,7.03
2018-12-11T02:40:49.671Z,6.67
2018-12-11T02:43:17.951Z,6.37
2018-12-11T02:45:46.221Z,5.63
2018-12-11T02:48:14.461Z,7.63
2018-12-11T02:50:42.712Z,6.30
2018-12-11T02:53:10.962Z,6.00
2018-12-11T02:55:39.217Z,7.00
2018-12-11T02:58:07.528Z,6.33
2018-12-11T03:00:35.772Z,7.70
2018-12-11T03:03:03.993Z,6.50
2018-12-11T03:05:32.292Z,6.10
2018-12-11T03:08:00.600Z,6.50
2018-12-11T03:10:28.859Z,6.80
2018-12-11T03:12:57.116Z,6.43
2018-12-11T03:15:25.387Z,5.70
2018-12-11T03:17:53.746Z,6.90
2018-12-11T03:20:22.005Z,7.70
2018-12-11T03:22:50.234Z,5.80
2018-12-11T03:25:18.689Z,6.00
2018-12-11T03:27:47.005Z,6.20
2018-12-11T03:30:15.317Z,5.87
2018-12-11T03:32:43.578Z,5.07
2018-12-11T03:35:12.377Z,5.70
2018-12-11T03:37:40.672Z,5.00
2018-12-11T03:40:08.979Z,5.80
2018-12-11T03:42:38.116Z,7.03
2018-12-11T03:45:06.419Z,5.77
2018-12-11T03:47:34.704Z,6.77
2018-12-11T03:50:04.294Z,7.33
2018-12-11T03:52:32.559Z,6.33
2018-12-11T03:55:00.842Z,6.47
2018-12-11T03:57:29.054Z,6.60
2018-12-11T03:59:57.311Z,7.40
2018-12-11T04:02:25.619Z,6.03
2018-12-11T04:04:53.868Z,6.40
2018-12-11T04:07:22.206Z,6.23
2018-12-11T04:09:50.461Z,5.83
2018-12-11T04:12:18.927Z,5.73
2018-12-11T04:14:47.917Z,6.33
2018-12-11T04:17:16.825Z,6.30
2018-12-11T04:19:45.127Z,6.93
2018-12-11T04:22:13.409Z,6.13
2018-12-11T04:24:41.687Z,6.70
2018-12-11T04:27:09.936Z,6.50
2018-12-11T04:29:38.173Z,6.67
2018-12-11T04:32:06.527Z,6.53
2018-12-11T04:34:34.748Z,6.40
2018-12-11T04:37:03.005Z,6.87
2018-12-11T04:39:34.085Z,6.53
2018-12-11T04:42:01.525Z,6.33
2018-12-11T04:44:29.791Z,5.97
2018-12-11T04:46:58.066Z,6.70
2018-12-11T04:49:26.402Z,5.97
2018-12-11T04:51:54.623Z,5.80
2018-12-11T04:54:22.846Z,5.47
2018-12-11T04:56:51.082Z,6.07
2018-12-11T04:59:19.335Z,6.37
2018-12-11T05:01:47.593Z,6.43
2018-12-11T05:04:15.834Z,5.27
2018-12-11T05:06:44.184Z,7.43
2018-12-11T05:09:12.411Z,6.63
2018-12-11T05:11:40.747Z,6.60
2018-12-11T05:14:09.140Z,6.10
2018-12-11T05:16:37.606Z,6.37
2018-12-11T05:19:05.942Z,6.30
2018-12-11T05:21:34.279Z,6.30
2018-12-11T05:24:02.772Z,6.70
2018-12-11T05:26:31.221Z,6.53
2018-12-11T05:28:59.493Z,6.40
2018-12-11T05:31:27.775Z,6.13
2018-12-11T05:33:56.063Z,5.50
2018-12-11T05:36:24.365Z,5.47
2018-12-11T05:38:52.828Z,7.10
2018-12-11T05:41:21.070Z,5.67
2018-12-11T05:43:49.362Z,6.73
2018-12-11T05:46:17.750Z,5.70
2018-12-11T05:48:46.003Z,7.03
2018-12-11T05:51:14.278Z,6.77
2018-12-11T05:53:42.622Z,6.20
2018-12-11T05:56:10.861Z,6.10
2018-12-11T05:58:40.088Z,6.70
2018-12-11T06:01:08.374Z,6.77
2018-12-11T06:03:36.805Z,6.90
2018-12-11T06:06:06.130Z,6.60
2018-12-11T06:08:34.474Z,6.43
2018-12-11T06:11:02.769Z,7.17
2018-12-11T06:13:31.040Z,5.87
2018-12-11T06:15:59.402Z,7.27
2018-12-11T06:18:27.758Z,6.40
2018-12-11T06:20:56.035Z,7.40
2018-12-11T06:23:24.346Z,6.60
2018-12-11T06:25:52.603Z,5.07
2018-12-11T06:28:20.863Z,6.33
2018-12-11T06:30:49.183Z,6.63
2018-12-11T06:33:17.445Z,5.70
2018-12-11T06:35:45.689Z,5.67
2018-12-11T06:40:34.154Z,6.20
2018-12-11T06:43:02.455Z,5.80
2018-12-11T06:45:30.840Z,6.13
2018-12-11T06:47:59.067Z,5.53
2018-12-11T06:50:27.329Z,5.30
2018-12-11T06:52:55.563Z,6.40
2018-12-11T06:55:23.901Z,5.97
2018-12-11T06:57:52.149Z,6.90
2018-12-11T07:00:20.425Z,6.17
2018-12-11T07:02:48.719Z,7.30
2018-12-11T07:05:16.946Z,6.40
2018-12-11T07:07:45.500Z,6.20
2018-12-11T07:10:13.741Z,5.80
2018-12-11T07:12:42.087Z,6.50
2018-12-11T07:15:10.602Z,6.80
2018-12-11T07:17:38.938Z,7.60
2018-12-11T07:20:07.312Z,5.37
2018-12-11T07:22:35.528Z,7.23
2018-12-11T07:25:03.835Z,6.70
2018-12-11T07:27:32.108Z,6.37
2018-12-11T07:30:00.353Z,6.57
2018-12-11T07:32:28.637Z,6.30
2018-12-11T07:34:56.875Z,5.60
2018-12-11T07:37:25.116Z,5.50
2018-12-11T07:39:53.408Z,5.60
2018-12-11T07:42:21.632Z,6.33
2018-12-11T07:44:49.876Z,5.50
2018-12-11T07:47:18.118Z,5.97
2018-12-11T07:49:46.600Z,8.57
2018-12-11T07:52:14.853Z,5.50
2018-12-11T07:54:43.067Z,5.77
2018-12-11T07:57:11.313Z,5.60
2018-12-11T07:59:39.562Z,6.87
2018-12-11T08:02:07.805Z,6.33
2018-12-11T08:04:36.107Z,6.13
2018-12-11T08:07:04.439Z,5.80
2018-12-11T08:09:32.755Z,6.63
2018-12-11T08:12:01.060Z,6.23
2018-12-11T08:14:29.387Z,5.80
2018-12-11T08:16:57.629Z,6.60
2018-12-11T08:19:25.875Z,7.53
2018-12-11T08:21:54.245Z,5.60
2018-12-11T08:24:22.549Z,5.70
2018-12-11T08:26:50.902Z,5.80
2018-12-11T08:29:19.118Z,5.60
2018-12-11T08:31:47.367Z,6.07
2018-12-11T08:34:15.606Z,5.53
2018-12-11T08:36:43.881Z,6.43
2018-12-11T08:39:12.106Z,5.70
2018-12-11T08:41:40.501Z,6.30
2018-12-11T08:44:08.721Z,6.47
2018-12-11T08:46:37.252Z,6.03
2018-12-11T08:49:05.519Z,6.00
2018-12-11T08:51:33.784Z,5.40
2018-12-11T08:54:02.601Z,6.53
2018-12-11T08:56:30.837Z,6.10
2018-12-11T08:58:59.059Z,6.30
2018-12-11T09:01:27.334Z,7.17
2018-12-11T09:03:55.600Z,6.53
2018-12-11T09:06:23.926Z,6.40
2018-12-11T09:08:52.181Z,5.53
2018-12-11T09:11:20.452Z,5.93
2018-12-11T09:13:48.751Z,5.83
2018-12-11T09:16:17.134Z,5.37
2018-12-11T09:18:45.382Z,6.07
2018-12-11T09:21:13.739Z,4.70
2018-12-11T09:23:41.955Z,4.80
2018-12-11T09:26:10.219Z,5.07
2018-12-11T09:28:38.466Z,5.63
2018-12-11T09:31:06.732Z,4.63
2018-12-11T09:33:34.994Z,6.00
2018-12-11T09:36:03.281Z,4.87
2018-12-11T09:38:31.521Z,4.57
2018-12-11T09:40:59.807Z,4.13
2018-12-11T09:43:28.121Z,4.20
2018-12-11T09:45:56.332Z,4.47
2018-12-11T09:48:24.580Z,5.40
2018-12-11T09:50:52.812Z,4.30
2018-12-11T09:53:21.035Z,4.63
2018-12-11T09:55:49.276Z,4.67
2018-12-11T09:58:17.525Z,5.50
2018-12-11T10:00:45.829Z,5.13
2018-12-11T10:03:14.120Z,4.13
2018-12-11T10:05:42.431Z,4.90
2018-12-11T10:08:10.663Z,5.50
2018-12-11T10:10:38.907Z,4.80
2018-12-11T10:13:07.171Z,5.10
2018-12-11T10:15:35.423Z,5.10
2018-12-11T10:18:03.800Z,4.53
2018-12-11T10:20:32.343Z,5.23
2018-12-11T10:23:01.834Z,4.90
2018-12-11T10:25:30.035Z,4.00
2018-12-11T10:27:58.375Z,4.53
2018-12-11T10:30:28.559Z,4.27
2018-12-11T10:32:56.847Z,5.47
2018-12-11T10:35:25.151Z,5.70
2018-12-11T10:37:54.450Z,4.90
2018-12-11T10:40:22.976Z,6.17
2018-12-11T10:42:51.273Z,13.80
2018-12-11T10:45:19.543Z,6.53
2018-12-11T10:47:47.831Z,3.97
2018-12-11T10:50:16.072Z,3.40
2018-12-11T10:52:44.367Z,3.83
2018-12-11T10:55:12.687Z,4.03
2018-12-11T10:57:40.928Z,3.50
2018-12-11T11:00:11.141Z,4.27
2018-12-11T11:05:34.975Z,4.20
2018-12-11T11:08:03.331Z,4.43
2018-12-11T11:10:31.597Z,4.73
2018-12-11T11:12:59.888Z,4.90
2018-12-11T11:15:28.174Z,3.70
2018-12-11T11:17:56.426Z,3.80
2018-12-11T11:20:24.856Z,5.30
2018-12-11T11:22:53.097Z,5.13
2018-12-11T11:25:21.415Z,4.50
2018-12-11T11:27:49.635Z,4.60
2018-12-11T11:30:18.020Z,4.70
2018-12-11T11:32:46.304Z,5.10
2018-12-11T11:35:14.684Z,4.50
2018-12-11T11:37:43.028Z,4.27
2018-12-11T11:40:11.890Z,4.43
2018-12-11T11:42:40.451Z,4.10
2018-12-11T11:45:09.636Z,5.27
2018-12-11T11:47:37.930Z,4.60
2018-12-11T11:50:08.593Z,4.70
2018-12-11T11:52:36.890Z,5.00
2018-12-11T11:55:05.524Z,3.97
2018-12-11T11:57:33.749Z,4.40
2018-12-11T12:00:02.114Z,4.40
2018-12-11T12:02:33.312Z,4.93
2018-12-11T12:05:00.609Z,4.97
2018-12-11T12:07:29.340Z,4.90
2018-12-11T12:09:57.588Z,4.47
2018-12-11T12:12:25.834Z,4.77
2018-12-11T12:14:54.125Z,4.77
2018-12-11T12:17:22.369Z,3.93
2018-12-11T12:19:50.717Z,4.80
2018-12-11T12:22:19.028Z,5.50
2018-12-11T12:24:47.278Z,5.20
2018-12-11T12:27:15.530Z,4.40
2018-12-11T12:29:43.867Z,4.57
2018-12-11T12:32:12.107Z,4.43
2018-12-11T12:34:40.341Z,5.90
2018-12-11T12:37:08.572Z,4.20
2018-12-11T12:39:36.879Z,4.50
2018-12-11T12:42:05.144Z,4.30
2018-12-11T12:44:33.409Z,4.80
2018-12-11T12:47:02.847Z,4.90
2018-12-11T12:49:31.104Z,4.53
2018-12-11T12:51:59.510Z,4.87
2018-12-11T12:54:27.791Z,5.33
2018-12-11T12:56:56.005Z,4.90
2018-12-11T12:59:24.320Z,5.20
2018-12-11T13:01:52.676Z,3.77
2018-12-11T13:04:20.915Z,3.73
2018-12-11T13:06:49.203Z,4.27
2018-12-11T13:09:17.490Z,5.17
2018-12-11T13:11:45.784Z,5.30
2018-12-11T13:14:14.127Z,4.77
2018-12-11T13:16:42.345Z,4.33
2018-12-11T13:19:10.663Z,4.20
2018-12-11T13:21:39.230Z,4.10
2018-12-11T13:24:07.504Z,4.30
2018-12-11T13:26:35.807Z,4.53
2018-12-11T13:29:04.057Z,4.40
2018-12-11T13:31:32.647Z,4.83
2018-12-11T13:34:00.937Z,4.40
2018-12-11T13:36:32.294Z,4.40
2018-12-11T13:38:59.460Z,3.87
2018-12-11T13:41:27.791Z,4.20
2018-12-11T13:43:56.168Z,4.10
2018-12-11T13:46:24.639Z,4.20
2018-12-11T13:48:53.072Z,3.93
2018-12-11T13:51:21.339Z,4.47
2018-12-11T13:53:49.691Z,4.77
2018-12-11T13:56:17.962Z,5.30
2018-12-11T13:58:46.254Z,4.30
2018-12-11T14:01:14.530Z,4.20
2018-12-11T14:03:42.767Z,4.33
2018-12-11T14:06:11.121Z,4.40
2018-12-11T14:08:39.448Z,5.17
2018-12-11T14:11:07.755Z,4.73
2018-12-11T14:13:36.058Z,4.57
2018-12-11T14:16:04.395Z,5.07
2018-12-11T14:18:37.466Z,4.50
2018-12-11T14:21:03.903Z,3.87
2018-12-11T14:23:32.143Z,4.60
2018-12-11T14:26:00.365Z,5.00
2018-12-11T14:28:28.641Z,3.97
2018-12-11T14:30:56.959Z,4.27
2018-12-11T14:33:25.167Z,4.17
2018-12-11T14:35:53.458Z,3.80
2018-12-11T14:38:21.792Z,4.30
2018-12-11T14:40:49.996Z,3.67
2018-12-11T14:43:18.272Z,4.70
2018-12-11T14:45:46.549Z,4.10
2018-12-11T14:48:14.835Z,4.13
2018-12-11T14:50:43.543Z,4.37
2018-12-11T14:53:11.776Z,4.60
2018-12-11T14:55:40.528Z,4.23
2018-12-11T14:58:09.101Z,4.50
2018-12-11T15:00:37.372Z,5.17
2018-12-11T15:03:05.899Z,6.20
2018-12-11T15:05:34.159Z,4.80
2018-12-11T15:08:02.481Z,4.50
2018-12-11T15:10:30.957Z,4.73
2018-12-11T15:12:59.363Z,6.23
2018-12-11T15:15:27.658Z,6.20
2018-12-11T15:17:55.908Z,5.57
2018-12-11T15:20:24.159Z,4.33
2018-12-11T15:22:52.415Z,6.07
2018-12-11T15:25:20.709Z,6.83
2018-12-11T15:27:48.942Z,5.40
2018-12-11T15:30:17.199Z,5.80
2018-12-11T15:32:45.420Z,5.10
2018-12-11T15:35:14.729Z,5.30
2018-12-11T15:37:42.964Z,5.83
2018-12-11T15:40:11.778Z,5.90
2018-12-11T15:42:40.050Z,4.97
2018-12-11T15:45:08.385Z,6.10
2018-12-11T15:47:36.666Z,5.97
2018-12-11T15:50:07.038Z,5.07
2018-12-11T15:52:35.361Z,6.73
2018-12-11T15:55:05.175Z,8.20
2018-12-11T15:57:33.430Z,6.33
2018-12-11T16:00:01.653Z,6.10
2018-12-11T16:02:29.932Z,6.90
2018-12-11T16:04:58.246Z,5.97
2018-12-11T16:07:26.536Z,5.10
2018-12-11T16:09:56.846Z,5.93
2018-12-11T16:12:25.176Z,5.37
2018-12-11T16:14:53.354Z,6.07
2018-12-11T16:17:21.740Z,5.23
2018-12-11T16:19:50.028Z,5.67
2018-12-11T16:22:18.267Z,7.33
2018-12-11T16:24:47.279Z,8.37
2018-12-11T16:27:15.851Z,7.03
2018-12-11T16:29:44.152Z,6.13
2018-12-11T16:32:12.362Z,5.50
2018-12-11T16:34:40.671Z,5.30
2018-12-11T16:37:09.886Z,7.47
2018-12-11T16:39:38.140Z,7.00
2018-12-11T16:42:06.362Z,8.00
2018-12-11T16:44:34.612Z,7.03
2018-12-11T16:47:02.881Z,6.57
2018-12-11T16:49:31.149Z,6.23
2018-12-11T16:51:59.388Z,6.30
2018-12-11T16:54:27.656Z,6.73
2018-12-11T16:56:55.896Z,7.37
2018-12-11T16:59:24.177Z,7.23
2018-12-11T17:01:52.376Z,6.60
2018-12-11T17:04:20.627Z,7.57
2018-12-11T17:06:48.855Z,6.50
2018-12-11T17:09:17.099Z,6.97
2018-12-11T17:11:45.340Z,6.00
2018-12-11T17:14:13.614Z,7.03
2018-12-11T17:16:41.880Z,7.30
2018-12-11T17:19:10.152Z,7.90
2018-12-11T17:21:38.443Z,8.50
2018-12-11T17:24:06.663Z,8.60
2018-12-11T17:26:34.997Z,8.90
2018-12-11T17:29:03.255Z,7.63
2018-12-11T17:31:31.563Z,7.83
2018-12-11T17:34:00.223Z,8.93
2018-12-11T17:36:28.460Z,9.17
2018-12-11T17:38:56.828Z,10.27
2018-12-11T17:41:25.111Z,11.50
2018-12-11T17:43:53.363Z,12.20
2018-12-11T17:46:21.615Z,12.40
2018-12-11T17:48:49.889Z,10.80
2018-12-11T17:51:18.149Z,11.50
2018-12-11T17:53:46.379Z,10.90
2018-12-11T17:56:14.646Z,10.00
2018-12-11T17:58:42.900Z,10.50
2018-12-11T18:01:11.140Z,10.70
2018-12-11T18:03:39.388Z,10.43
2018-12-11T18:06:07.631Z,9.27
2018-12-11T18:08:35.908Z,10.30
2018-12-11T18:11:04.195Z,9.80
2018-12-11T18:13:32.462Z,10.90
2018-12-11T18:16:00.718Z,10.63
2018-12-11T18:18:28.993Z,8.83
2018-12-11T18:20:57.273Z,9.67
2018-12-11T18:23:25.522Z,9.97
2018-12-11T18:25:53.820Z,9.33
2018-12-11T18:28:22.156Z,8.57
2018-12-11T18:30:50.370Z,9.10
2018-12-11T18:33:18.663Z,10.10
2018-12-11T18:35:46.940Z,8.90
2018-12-11T18:38:15.274Z,9.93
2018-12-11T18:40:43.461Z,9.30
2018-12-11T18:43:11.856Z,8.47
2018-12-11T18:45:40.200Z,7.40
2018-12-11T18:48:08.469Z,7.00
2018-12-11T18:50:36.732Z,10.20
2018-12-11T18:53:05.006Z,8.27
2018-12-11T18:55:33.301Z,9.17
2018-12-11T18:58:01.580Z,9.53
2018-12-11T19:00:29.872Z,9.30
2018-12-11T19:02:58.158Z,9.23
2018-12-11T19:05:26.440Z,9.47
2018-12-11T19:07:54.757Z,8.43
2018-12-11T19:10:23.327Z,8.97
2018-12-11T19:12:51.577Z,8.40
2018-12-11T19:15:19.964Z,10.80
2018-12-11T19:17:48.453Z,14.20
2018-12-11T19:20:17.730Z,9.23
2018-12-11T19:22:46.035Z,9.50
2018-12-11T19:25:16.632Z,9.07
2018-12-11T19:27:44.868Z,9.53
2018-12-11T19:30:13.183Z,9.70
2018-12-11T19:32:42.339Z,8.40
2018-12-11T19:35:10.691Z,9.40
2018-12-11T19:37:38.912Z,8.37
2018-12-11T19:40:07.510Z,8.70
2018-12-11T19:42:36.631Z,8.47
2018-12-11T19:45:06.149Z,8.40
2018-12-11T19:47:34.403Z,9.00
2018-12-11T19:50:04.410Z,9.63
2018-12-11T19:52:32.640Z,10.53
2018-12-11T19:55:01.283Z,10.13
2018-12-11T19:57:29.542Z,9.17
2018-12-11T19:59:57.839Z,9.93
2018-12-11T20:02:26.136Z,9.13
2018-12-11T20:04:54.382Z,9.70
2018-12-11T20:07:22.648Z,10.20
2018-12-11T20:09:56.641Z,10.00
2018-12-11T20:12:24.926Z,11.13
2018-12-11T20:14:53.316Z,10.80
2018-12-11T20:17:21.596Z,8.97
2018-12-11T20:19:49.882Z,9.90
2018-12-11T20:22:18.146Z,10.17
2018-12-11T20:24:46.521Z,10.17
2018-12-11T20:27:14.799Z,10.90
2018-12-11T20:29:43.190Z,11.40
2018-12-11T20:32:11.465Z,9.60
2018-12-11T20:34:39.701Z,11.00
2018-12-11T20:37:08.534Z,10.60
2018-12-11T20:39:36.917Z,12.17
2018-12-11T20:42:05.233Z,10.40
2018-12-11T20:44:33.462Z,10.60
2018-12-11T20:47:02.026Z,11.13
2018-12-11T20:49:30.269Z,11.90
2018-12-11T20:51:58.547Z,9.87
2018-12-11T20:54:26.823Z,10.77
2018-12-11T20:56:55.085Z,10.20
2018-12-11T20:59:23.308Z,9.47
2018-12-11T21:01:51.584Z,9.50
2018-12-11T21:04:19.874Z,10.40
2018-12-11T21:06:48.105Z,10.47
2018-12-11T21:09:16.400Z,10.03
2018-12-11T21:11:44.721Z,10.27
2018-12-11T21:14:13.890Z,9.73
2018-12-11T21:16:42.152Z,11.63
2018-12-11T21:19:10.676Z,10.43
2018-12-11T21:21:39.063Z,11.00
2018-12-11T21:24:07.586Z,10.57
2018-12-11T21:26:35.890Z,10.90
2018-12-11T21:29:04.197Z,12.10
2018-12-11T21:31:32.462Z,12.40
2018-12-11T21:34:00.794Z,11.70
2018-12-11T21:36:29.071Z,10.50
2018-12-11T21:38:57.347Z,9.70
2018-12-11T21:41:25.676Z,10.93
2018-12-11T21:43:53.937Z,9.27
2018-12-11T21:46:22.291Z,10.20
2018-12-11T21:48:50.556Z,11.30
2018-12-11T21:51:18.843Z,9.60
2018-12-11T21:53:47.105Z,9.47
2018-12-11T21:56:15.421Z,9.60
2018-12-11T21:58:43.678Z,10.07
2018-12-11T22:01:11.976Z,11.00
2018-12-11T22:03:40.493Z,10.97
2018-12-11T22:06:09.135Z,12.90
2018-12-11T22:08:37.703Z,11.17
2018-12-11T22:11:05.992Z,10.70
2018-12-11T22:13:34.250Z,11.03
2018-12-11T22:16:02.540Z,10.40
2018-12-11T22:18:30.847Z,10.50
2018-12-11T22:20:59.152Z,9.03
2018-12-11T22:23:27.438Z,10.40
2018-12-11T22:25:55.652Z,10.20
2018-12-11T22:28:23.938Z,10.33
2018-12-11T22:30:52.195Z,10.17
2018-12-11T22:33:20.469Z,10.07
2018-12-11T22:35:48.740Z,11.00
2018-12-11T22:38:17.472Z,11.10
2018-12-11T22:40:45.816Z,9.83
2018-12-11T22:43:14.116Z,11.13
2018-12-11T22:45:42.360Z,11.50
2018-12-11T22:48:10.643Z,11.30
2018-12-11T22:50:38.916Z,10.90
2018-12-11T22:53:07.148Z,11.87
2018-12-11T22:55:35.422Z,12.03
2018-12-11T22:58:03.702Z,10.97
2018-12-11T23:00:42.263Z,12.40
2018-12-11T23:03:10.533Z,11.30
2018-12-11T23:05:38.919Z,11.47
2018-12-11T23:08:07.196Z,11.33
2018-12-11T23:10:35.483Z,11.83
2018-12-11T23:13:03.787Z,10.60
2018-12-11T23:15:32.187Z,11.43
2018-12-11T23:18:00.523Z,11.93
2018-12-11T23:20:28.779Z,12.30
2018-12-11T23:22:57.084Z,12.20
2018-12-11T23:25:25.418Z,12.47
2018-12-11T23:27:53.676Z,13.93
2018-12-11T23:30:21.924Z,12.70
2018-12-11T23:32:50.160Z,10.83
2018-12-11T23:35:18.436Z,12.47
2018-12-11T23:37:46.739Z,10.77
2018-12-11T23:40:16.986Z,11.47
2018-12-11T23:42:45.236Z,12.47
2018-12-11T23:45:13.492Z,12.83
2018-12-11T23:47:41.779Z,12.67
2018-12-11T23:50:10.020Z,11.57
2018-12-11T23:52:38.235Z,15.07
2018-12-11T23:55:06.632Z,13.17
2018-12-11T23:57:34.858Z,12.73
